sensor_id;sensor_type;location;lat;lon;timestamp;pressure;altitude;pressure_sealevel;temperature;humidity
18569;BME280;14780;48.316;-1.050;2023-01-26T00:02:35;99918.03;;;22.97;32.43
18569;BME280;14780;48.316;-1.050;2023-01-26T00:05:20;99922.16;;;22.99;32.42
18569;BME280;14780;48.316;-1.050;2023-01-26T00:08:05;99921.34;;;22.99;32.64
18569;BME280;14780;48.316;-1.050;2023-01-26T00:10:50;99915.91;;;22.99;32.32
18569;BME280;14780;48.316;-1.050;2023-01-26T00:13:36;99911.47;;;22.98;32.50
18569;BME280;14780;48.316;-1.050;2023-01-26T00:16:22;99906.63;;;23.00;32.44
18569;BME280;14780;48.316;-1.050;2023-01-26T00:19:07;99895.19;;;23.03;32.39
18569;BME280;14780;48.316;-1.050;2023-01-26T00:21:51;99899.00;;;23.02;32.30
18569;BME280;14780;48.316;-1.050;2023-01-26T00:24:36;99903.38;;;23.03;32.48
18569;BME280;14780;48.316;-1.050;2023-01-26T00:27:20;99896.53;;;23.00;32.27
18569;BME280;14780;48.316;-1.050;2023-01-26T00:30:05;99889.97;;;23.01;32.24
18569;BME280;14780;48.316;-1.050;2023-01-26T00:32:50;99888.94;;;23.02;32.50
18569;BME280;14780;48.316;-1.050;2023-01-26T00:35:35;99878.81;;;23.03;32.33
18569;BME280;14780;48.316;-1.050;2023-01-26T00:38:19;99872.06;;;23.05;32.35
18569;BME280;14780;48.316;-1.050;2023-01-26T00:41:04;99871.47;;;23.03;32.27
18569;BME280;14780;48.316;-1.050;2023-01-26T00:43:49;99869.56;;;23.04;32.43
18569;BME280;14780;48.316;-1.050;2023-01-26T00:46:33;99865.50;;;23.06;32.41
18569;BME280;14780;48.316;-1.050;2023-01-26T00:49:18;99871.53;;;23.08;32.38
18569;BME280;14780;48.316;-1.050;2023-01-26T00:52:03;99870.22;;;23.11;32.44
18569;BME280;14780;48.316;-1.050;2023-01-26T00:54:48;99864.19;;;23.09;32.29
18569;BME280;14780;48.316;-1.050;2023-01-26T00:57:33;99859.06;;;23.12;32.35
18569;BME280;14780;48.316;-1.050;2023-01-26T01:00:17;99866.91;;;23.09;32.37
18569;BME280;14780;48.316;-1.050;2023-01-26T01:03:04;99871.41;;;23.15;32.17
18569;BME280;14780;48.316;-1.050;2023-01-26T01:05:50;99876.38;;;23.18;32.16
18569;BME280;14780;48.316;-1.050;2023-01-26T01:08:35;99882.91;;;23.17;32.31
18569;BME280;14780;48.316;-1.050;2023-01-26T01:11:20;99870.44;;;23.21;32.06
18569;BME280;14780;48.316;-1.050;2023-01-26T01:14:04;99864.47;;;23.24;32.19
18569;BME280;14780;48.316;-1.050;2023-01-26T01:16:49;99863.13;;;23.26;32.16
18569;BME280;14780;48.316;-1.050;2023-01-26T01:19:33;99858.50;;;23.27;32.22
18569;BME280;14780;48.316;-1.050;2023-01-26T01:22:18;99846.53;;;23.28;32.32
18569;BME280;14780;48.316;-1.050;2023-01-26T01:25:03;99850.91;;;23.29;32.16
18569;BME280;14780;48.316;-1.050;2023-01-26T01:27:48;99849.91;;;23.35;32.27
18569;BME280;14780;48.316;-1.050;2023-01-26T01:30:33;99842.28;;;23.37;32.22
18569;BME280;14780;48.316;-1.050;2023-01-26T01:33:17;99842.28;;;23.37;32.35
18569;BME280;14780;48.316;-1.050;2023-01-26T01:36:07;99838.47;;;23.38;32.01
18569;BME280;14780;48.316;-1.050;2023-01-26T01:38:53;99839.31;;;23.38;32.08
18569;BME280;14780;48.316;-1.050;2023-01-26T01:41:38;99831.34;;;23.37;32.07
18569;BME280;14780;48.316;-1.050;2023-01-26T01:44:24;99827.03;;;23.40;31.88
18569;BME280;14780;48.316;-1.050;2023-01-26T01:47:21;99839.63;;;23.42;32.02
18569;BME280;14780;48.316;-1.050;2023-01-26T01:50:14;99829.50;;;23.42;32.06
18569;BME280;14780;48.316;-1.050;2023-01-26T01:53:01;99810.63;;;23.40;32.08
18569;BME280;14780;48.316;-1.050;2023-01-26T01:55:46;99826.53;;;23.43;32.09
18569;BME280;14780;48.316;-1.050;2023-01-26T01:58:32;99820.50;;;23.42;31.94
18569;BME280;14780;48.316;-1.050;2023-01-26T02:01:21;99810.72;;;23.45;31.96
18569;BME280;14780;48.316;-1.050;2023-01-26T02:04:07;99803.03;;;23.42;31.84
18569;BME280;14780;48.316;-1.050;2023-01-26T02:06:54;99805.25;;;23.45;32.07
18569;BME280;14780;48.316;-1.050;2023-01-26T02:09:41;99802.53;;;23.45;32.00
18569;BME280;14780;48.316;-1.050;2023-01-26T02:12:52;99802.03;;;23.48;31.76
18569;BME280;14780;48.316;-1.050;2023-01-26T02:15:40;99801.44;;;23.46;31.81
18569;BME280;14780;48.316;-1.050;2023-01-26T02:18:25;99793.84;;;23.48;31.77
18569;BME280;14780;48.316;-1.050;2023-01-26T02:21:17;99798.16;;;23.44;31.75
18569;BME280;14780;48.316;-1.050;2023-01-26T02:27:05;99789.94;;;23.44;31.81
18569;BME280;14780;48.316;-1.050;2023-01-26T02:29:50;99789.94;;;23.44;31.95
18569;BME280;14780;48.316;-1.050;2023-01-26T02:32:35;99777.88;;;23.40;31.95
18569;BME280;14780;48.316;-1.050;2023-01-26T02:35:19;99777.94;;;23.45;31.78
18569;BME280;14780;48.316;-1.050;2023-01-26T02:38:04;99782.00;;;23.43;31.96
18569;BME280;14780;48.316;-1.050;2023-01-26T02:41:01;99778.47;;;23.42;31.74
18569;BME280;14780;48.316;-1.050;2023-01-26T02:43:48;99773.56;;;23.44;31.72
18569;BME280;14780;48.316;-1.050;2023-01-26T02:46:32;99766.94;;;23.40;31.99
18569;BME280;14780;48.316;-1.050;2023-01-26T02:49:17;99766.22;;;23.45;31.72
18569;BME280;14780;48.316;-1.050;2023-01-26T02:52:26;99755.44;;;23.38;31.74
18569;BME280;14780;48.316;-1.050;2023-01-26T02:55:12;99759.06;;;23.44;32.02
18569;BME280;14780;48.316;-1.050;2023-01-26T02:58:05;99746.19;;;23.39;31.80
18569;BME280;14780;48.316;-1.050;2023-01-26T03:00:51;99747.25;;;23.38;31.80
18569;BME280;14780;48.316;-1.050;2023-01-26T03:03:36;99753.59;;;23.44;31.83
18569;BME280;14780;48.316;-1.050;2023-01-26T03:06:28;99741.81;;;23.38;31.61
18569;BME280;14780;48.316;-1.050;2023-01-26T03:09:13;99736.91;;;23.40;31.97
18569;BME280;14780;48.316;-1.050;2023-01-26T03:11:58;99735.53;;;23.38;31.84
18569;BME280;14780;48.316;-1.050;2023-01-26T03:14:43;99736.34;;;23.38;31.82
18569;BME280;14780;48.316;-1.050;2023-01-26T03:17:27;99739.59;;;23.36;31.68
18569;BME280;14780;48.316;-1.050;2023-01-26T03:20:12;99743.97;;;23.37;31.73
18569;BME280;14780;48.316;-1.050;2023-01-26T03:23:16;99733.34;;;23.40;31.78
18569;BME280;14780;48.316;-1.050;2023-01-26T03:26:19;99742.88;;;23.38;31.92
18569;BME280;14780;48.316;-1.050;2023-01-26T03:29:23;99740.72;;;23.39;31.80
18569;BME280;14780;48.316;-1.050;2023-01-26T03:32:10;99740.16;;;23.38;31.66
18569;BME280;14780;48.316;-1.050;2023-01-26T03:34:55;99738.50;;;23.37;31.94
18569;BME280;14780;48.316;-1.050;2023-01-26T03:37:40;99739.84;;;23.34;31.89
18569;BME280;14780;48.316;-1.050;2023-01-26T03:40:27;99733.03;;;23.37;31.91
18569;BME280;14780;48.316;-1.050;2023-01-26T03:43:30;99733.03;;;23.37;31.67
18569;BME280;14780;48.316;-1.050;2023-01-26T03:46:34;99739.06;;;23.38;31.69
18569;BME280;14780;48.316;-1.050;2023-01-26T03:49:37;99728.66;;;23.36;31.80
18569;BME280;14780;48.316;-1.050;2023-01-26T03:52:41;99727.25;;;23.33;31.91
18569;BME280;14780;48.316;-1.050;2023-01-26T03:55:44;99724.28;;;23.35;31.64
18569;BME280;14780;48.316;-1.050;2023-01-26T03:58:53;99724.84;;;23.37;31.54
18569;BME280;14780;48.316;-1.050;2023-01-26T04:01:41;99729.22;;;23.38;31.68
18569;BME280;14780;48.316;-1.050;2023-01-26T04:04:26;99721.56;;;23.35;31.57
18569;BME280;14780;48.316;-1.050;2023-01-26T04:07:29;99724.28;;;23.35;31.65
18569;BME280;14780;48.316;-1.050;2023-01-26T04:10:33;99720.97;;;23.33;31.66
18569;BME280;14780;48.316;-1.050;2023-01-26T04:13:18;99726.41;;;23.33;31.72
18569;BME280;14780;48.316;-1.050;2023-01-26T04:16:22;99724.78;;;23.32;31.67
18569;BME280;14780;48.316;-1.050;2023-01-26T04:19:26;99716.59;;;23.32;31.78
18569;BME280;14780;48.316;-1.050;2023-01-26T04:22:30;99717.66;;;23.31;31.78
18569;BME280;14780;48.316;-1.050;2023-01-26T04:25:19;99719.00;;;23.28;31.69
18569;BME280;14780;48.316;-1.050;2023-01-26T04:28:03;99725.78;;;23.26;31.72
18569;BME280;14780;48.316;-1.050;2023-01-26T04:30:48;99719.25;;;23.27;31.75
18569;BME280;14780;48.316;-1.050;2023-01-26T04:33:34;99720.31;;;23.26;31.66
18569;BME280;14780;48.316;-1.050;2023-01-26T04:36:18;99715.69;;;23.26;31.56
18569;BME280;14780;48.316;-1.050;2023-01-26T04:39:03;99712.66;;;23.23;31.72
18569;BME280;14780;48.316;-1.050;2023-01-26T04:41:48;99719.19;;;23.22;31.59
18569;BME280;14780;48.316;-1.050;2023-01-26T04:44:32;99718.34;;;23.21;31.58
18569;BME280;14780;48.316;-1.050;2023-01-26T04:47:18;99720.28;;;23.21;31.53
18569;BME280;14780;48.316;-1.050;2023-01-26T04:50:03;99716.16;;;23.18;31.56
18569;BME280;14780;48.316;-1.050;2023-01-26T04:52:48;99721.84;;;23.17;31.43
18569;BME280;14780;48.316;-1.050;2023-01-26T04:55:32;99721.84;;;23.17;31.72
18569;BME280;14780;48.316;-1.050;2023-01-26T04:58:17;99723.41;;;23.13;31.57
18569;BME280;14780;48.316;-1.050;2023-01-26T05:01:02;99729.44;;;23.15;31.50
18569;BME280;14780;48.316;-1.050;2023-01-26T05:03:47;99729.44;;;23.15;31.54
18569;BME280;14780;48.316;-1.050;2023-01-26T05:06:32;99718.19;;;23.11;31.68
18569;BME280;14780;48.316;-1.050;2023-01-26T05:09:17;99724.47;;;23.12;31.71
18569;BME280;14780;48.316;-1.050;2023-01-26T05:12:02;99725.53;;;23.11;31.75
18569;BME280;14780;48.316;-1.050;2023-01-26T05:15:07;99717.63;;;23.09;31.70
18569;BME280;14780;48.316;-1.050;2023-01-26T05:17:52;99718.44;;;23.10;31.54
18569;BME280;14780;48.316;-1.050;2023-01-26T05:20:36;99722.75;;;23.06;31.74
18569;BME280;14780;48.316;-1.050;2023-01-26T05:23:21;99716.22;;;23.07;31.70
18569;BME280;14780;48.316;-1.050;2023-01-26T05:26:06;99715.81;;;22.98;31.61
18569;BME280;14780;48.316;-1.050;2023-01-26T05:28:51;99710.94;;;23.00;31.51
18569;BME280;14780;48.316;-1.050;2023-01-26T05:31:36;99723.00;;;23.04;31.78
18569;BME280;14780;48.316;-1.050;2023-01-26T05:34:20;99724.09;;;23.03;31.83
18569;BME280;14780;48.316;-1.050;2023-01-26T05:37:05;99723.78;;;23.00;31.60
18569;BME280;14780;48.316;-1.050;2023-01-26T05:39:50;99722.38;;;22.97;31.78
18569;BME280;14780;48.316;-1.050;2023-01-26T05:42:34;99722.13;;;22.99;31.80
18569;BME280;14780;48.316;-1.050;2023-01-26T05:45:19;99713.34;;;22.97;31.74
18569;BME280;14780;48.316;-1.050;2023-01-26T05:48:04;99712.78;;;22.95;31.60
18569;BME280;14780;48.316;-1.050;2023-01-26T05:50:50;99721.19;;;22.93;31.63
18569;BME280;14780;48.316;-1.050;2023-01-26T05:53:34;99718.22;;;22.95;31.56
18569;BME280;14780;48.316;-1.050;2023-01-26T05:56:19;99705.66;;;22.94;31.77
18569;BME280;14780;48.316;-1.050;2023-01-26T05:59:04;99722.03;;;22.94;31.65
18569;BME280;14780;48.316;-1.050;2023-01-26T06:01:48;99717.06;;;22.91;31.79
18569;BME280;14780;48.316;-1.050;2023-01-26T06:04:33;99720.63;;;22.91;31.77
18569;BME280;14780;48.316;-1.050;2023-01-26T06:07:17;99737.25;;;22.90;31.65
18569;BME280;14780;48.316;-1.050;2023-01-26T06:10:03;99735.34;;;22.90;31.73
18569;BME280;14780;48.316;-1.050;2023-01-26T06:12:48;99736.91;;;22.86;31.66
18569;BME280;14780;48.316;-1.050;2023-01-26T06:15:33;99731.47;;;22.86;31.68
18569;BME280;14780;48.316;-1.050;2023-01-26T06:18:18;99737.75;;;22.87;31.76
18569;BME280;14780;48.316;-1.050;2023-01-26T06:21:03;99733.06;;;22.82;31.54
18569;BME280;14780;48.316;-1.050;2023-01-26T06:23:47;99734.13;;;22.81;31.44
18569;BME280;14780;48.316;-1.050;2023-01-26T06:26:32;99734.38;;;22.80;31.43
18569;BME280;14780;48.316;-1.050;2023-01-26T06:29:16;99740.91;;;22.79;31.54
18569;BME280;14780;48.316;-1.050;2023-01-26T06:32:02;99738.66;;;22.76;31.83
18569;BME280;14780;48.316;-1.050;2023-01-26T06:34:46;99745.28;;;22.80;31.45
18569;BME280;14780;48.316;-1.050;2023-01-26T06:37:31;99740.91;;;22.79;31.67
18569;BME280;14780;48.316;-1.050;2023-01-26T06:40:17;99743.06;;;22.77;31.44
18569;BME280;14780;48.316;-1.050;2023-01-26T06:43:02;99741.06;;;22.72;31.52
18569;BME280;14780;48.316;-1.050;2023-01-26T06:45:47;99746.84;;;22.76;31.86
18569;BME280;14780;48.316;-1.050;2023-01-26T06:48:33;99738.94;;;22.74;31.92
18569;BME280;14780;48.316;-1.050;2023-01-26T06:54:03;99746.53;;;22.72;31.78
18569;BME280;14780;48.316;-1.050;2023-01-26T06:56:48;99747.38;;;22.73;31.93
18569;BME280;14780;48.316;-1.050;2023-01-26T06:59:32;99755.78;;;22.71;31.68
18569;BME280;14780;48.316;-1.050;2023-01-26T07:02:21;99754.97;;;22.71;31.87
18569;BME280;14780;48.316;-1.050;2023-01-26T07:05:06;99746.69;;;22.66;31.88
18569;BME280;14780;48.316;-1.050;2023-01-26T07:07:51;99752.16;;;22.66;31.83
18569;BME280;14780;48.316;-1.050;2023-01-26T07:10:36;99757.63;;;22.66;31.68
18569;BME280;14780;48.316;-1.050;2023-01-26T07:13:21;99748.59;;;22.65;31.67
18569;BME280;14780;48.316;-1.050;2023-01-26T07:16:11;99759.50;;;22.65;31.88
18569;BME280;14780;48.316;-1.050;2023-01-26T07:18:56;99746.38;;;22.62;31.89
18569;BME280;14780;48.316;-1.050;2023-01-26T07:21:41;99755.63;;;22.61;32.00
18569;BME280;14780;48.316;-1.050;2023-01-26T07:24:26;99751.25;;;22.60;31.72
18569;BME280;14780;48.316;-1.050;2023-01-26T07:27:11;99747.94;;;22.58;31.98
18569;BME280;14780;48.316;-1.050;2023-01-26T07:29:56;99753.66;;;22.57;31.75
18569;BME280;14780;48.316;-1.050;2023-01-26T07:32:41;99739.19;;;22.56;31.78
18569;BME280;14780;48.316;-1.050;2023-01-26T07:35:25;99745.47;;;22.57;31.89
18569;BME280;14780;48.316;-1.050;2023-01-26T07:38:11;99748.19;;;22.57;31.84
18569;BME280;14780;48.316;-1.050;2023-01-26T07:40:56;99752.06;;;22.61;31.92
18569;BME280;14780;48.316;-1.050;2023-01-26T07:43:41;99766.31;;;22.63;32.13
18569;BME280;14780;48.316;-1.050;2023-01-26T07:46:26;99762.50;;;22.64;32.16
18569;BME280;14780;48.316;-1.050;2023-01-26T07:49:10;99764.16;;;22.65;32.05
18569;BME280;14780;48.316;-1.050;2023-01-26T07:51:56;99771.50;;;22.64;32.32
18569;BME280;14780;48.316;-1.050;2023-01-26T07:54:40;99776.13;;;22.64;32.18
18569;BME280;14780;48.316;-1.050;2023-01-26T07:57:25;99790.59;;;22.64;32.18
18569;BME280;14780;48.316;-1.050;2023-01-26T08:00:10;99787.63;;;22.66;32.17
18569;BME280;14780;48.316;-1.050;2023-01-26T08:02:55;99786.22;;;22.63;32.17
18569;BME280;14780;48.316;-1.050;2023-01-26T08:05:39;99794.16;;;22.65;32.34
18569;BME280;14780;48.316;-1.050;2023-01-26T08:08:25;99792.22;;;22.65;32.54
18569;BME280;14780;48.316;-1.050;2023-01-26T08:11:11;99798.03;;;22.69;32.25
18569;BME280;14780;48.316;-1.050;2023-01-26T08:13:56;99799.69;;;22.70;32.38
18569;BME280;14780;48.316;-1.050;2023-01-26T08:16:40;99805.41;;;22.68;32.65
18569;BME280;14780;48.316;-1.050;2023-01-26T08:19:25;99808.38;;;22.67;32.54
18569;BME280;14780;48.316;-1.050;2023-01-26T08:22:09;99821.44;;;22.65;32.38
18569;BME280;14780;48.316;-1.050;2023-01-26T08:24:54;99822.84;;;22.67;32.33
18569;BME280;14780;48.316;-1.050;2023-01-26T08:27:38;99823.91;;;22.66;32.64
18569;BME280;14780;48.316;-1.050;2023-01-26T08:30:23;99834.00;;;22.66;32.58
18569;BME280;14780;48.316;-1.050;2023-01-26T08:33:08;99833.16;;;22.65;32.54
18569;BME280;14780;48.316;-1.050;2023-01-26T08:35:52;99844.91;;;22.66;32.37
18569;BME280;14780;48.316;-1.050;2023-01-26T08:38:37;99842.41;;;22.64;32.70
18569;BME280;14780;48.316;-1.050;2023-01-26T08:41:22;99846.22;;;22.63;32.61
18569;BME280;14780;48.316;-1.050;2023-01-26T08:44:08;99834.50;;;22.63;32.57
18569;BME280;14780;48.316;-1.050;2023-01-26T08:46:53;99850.25;;;22.61;32.59
18569;BME280;14780;48.316;-1.050;2023-01-26T08:49:38;99851.09;;;22.61;32.60
18569;BME280;14780;48.316;-1.050;2023-01-26T08:52:33;99850.19;;;22.56;32.40
18569;BME280;14780;48.316;-1.050;2023-01-26T08:55:18;99851.84;;;22.57;32.46
18569;BME280;14780;48.316;-1.050;2023-01-26T08:58:03;99855.66;;;22.56;32.51
18569;BME280;14780;48.316;-1.050;2023-01-26T09:00:48;99865.72;;;22.55;32.46
18569;BME280;14780;48.316;-1.050;2023-01-26T09:03:33;99863.22;;;22.54;32.47
18569;BME280;14780;48.316;-1.050;2023-01-26T09:06:18;99865.38;;;22.52;32.40
18569;BME280;14780;48.316;-1.050;2023-01-26T09:09:03;99878.44;;;22.50;32.48
18569;BME280;14780;48.316;-1.050;2023-01-26T09:11:47;99888.28;;;22.51;32.58
18569;BME280;14780;48.316;-1.050;2023-01-26T09:14:32;99889.81;;;22.47;32.53
18569;BME280;14780;48.316;-1.050;2023-01-26T09:17:17;99890.31;;;22.44;32.55
18569;BME280;14780;48.316;-1.050;2023-01-26T09:20:02;99895.78;;;22.44;32.62
18569;BME280;14780;48.316;-1.050;2023-01-26T09:22:47;99902.31;;;22.43;32.47
18569;BME280;14780;48.316;-1.050;2023-01-26T09:25:35;99888.06;;;22.41;32.52
18569;BME280;14780;48.316;-1.050;2023-01-26T09:28:20;99904.41;;;22.41;32.47
18569;BME280;14780;48.316;-1.050;2023-01-26T09:31:07;99900.00;;;22.40;32.42
18569;BME280;14780;48.316;-1.050;2023-01-26T09:33:53;99895.06;;;22.37;32.52
18569;BME280;14780;48.316;-1.050;2023-01-26T09:36:37;99901.09;;;22.39;32.46
18569;BME280;14780;48.316;-1.050;2023-01-26T09:39:22;99905.13;;;22.36;32.35
18569;BME280;14780;48.316;-1.050;2023-01-26T09:45:38;99908.91;;;22.35;32.54
18569;BME280;14780;48.316;-1.050;2023-01-26T09:54:51;99916.75;;;22.32;32.64
18569;BME280;14780;48.316;-1.050;2023-01-26T09:57:52;99911.56;;;22.30;32.61
18569;BME280;14780;48.316;-1.050;2023-01-26T10:00:59;99909.31;;;22.27;32.40
18569;BME280;14780;48.316;-1.050;2023-01-26T10:03:50;99900.31;;;22.27;32.53
18569;BME280;14780;48.316;-1.050;2023-01-26T10:06:37;99905.16;;;22.25;32.65
18569;BME280;14780;48.316;-1.050;2023-01-26T10:09:25;99900.31;;;22.27;32.36
18569;BME280;14780;48.316;-1.050;2023-01-26T10:12:15;99907.66;;;22.26;32.60
18569;BME280;14780;48.316;-1.050;2023-01-26T10:15:37;99898.06;;;22.24;32.30
18569;BME280;14780;48.316;-1.050;2023-01-26T10:18:29;99906.22;;;22.24;32.35
18569;BME280;14780;48.316;-1.050;2023-01-26T10:21:19;99917.13;;;22.24;32.54
18569;BME280;14780;48.316;-1.050;2023-01-26T10:24:09;99906.22;;;22.24;32.76
18569;BME280;14780;48.316;-1.050;2023-01-26T10:26:56;99924.75;;;22.22;32.37
18569;BME280;14780;48.316;-1.050;2023-01-26T10:29:41;99927.47;;;22.22;32.43
18569;BME280;14780;48.316;-1.050;2023-01-26T10:32:26;99927.47;;;22.22;32.57
18569;BME280;14780;48.316;-1.050;2023-01-26T10:35:17;99936.44;;;22.22;32.37
18569;BME280;14780;48.316;-1.050;2023-01-26T10:38:03;99943.25;;;22.20;32.39
18569;BME280;14780;48.316;-1.050;2023-01-26T10:47:14;99942.16;;;22.21;32.40
18569;BME280;14780;48.316;-1.050;2023-01-26T10:50:20;99936.94;;;22.19;32.35
18569;BME280;14780;48.316;-1.050;2023-01-26T10:53:05;99943.81;;;22.22;32.38
18569;BME280;14780;48.316;-1.050;2023-01-26T10:56:14;99942.41;;;22.19;32.48
18569;BME280;14780;48.316;-1.050;2023-01-26T10:59:01;99930.66;;;22.19;32.59
18569;BME280;14780;48.316;-1.050;2023-01-26T11:04:43;99930.66;;;22.19;32.49
18569;BME280;14780;48.316;-1.050;2023-01-26T11:07:47;99932.34;;;22.20;32.41
18569;BME280;14780;48.316;-1.050;2023-01-26T11:10:39;99926.88;;;22.20;32.61
18569;BME280;14780;48.316;-1.050;2023-01-26T11:13:35;99944.28;;;22.19;32.54
18569;BME280;14780;48.316;-1.050;2023-01-26T11:16:23;99926.28;;;22.18;32.62
18569;BME280;14780;48.316;-1.050;2023-01-26T11:44:24;99907.13;;;22.13;32.53
18569;BME280;14780;48.316;-1.050;2023-01-26T11:47:34;99913.63;;;22.12;32.46
18569;BME280;14780;48.316;-1.050;2023-01-26T11:53:18;99907.13;;;22.13;32.58
18569;BME280;14780;48.316;-1.050;2023-01-26T11:59:37;99913.63;;;22.12;32.56
18569;BME280;14780;48.316;-1.050;2023-01-26T12:02:33;99915.75;;;22.10;32.87
18569;BME280;14780;48.316;-1.050;2023-01-26T12:05:24;99919.56;;;22.09;32.82
18569;BME280;14780;48.316;-1.050;2023-01-26T12:08:21;99917.66;;;22.09;32.81
18569;BME280;14780;48.316;-1.050;2023-01-26T12:11:14;99918.47;;;22.10;32.82
18569;BME280;14780;48.316;-1.050;2023-01-26T12:14:30;99922.03;;;22.10;32.59
18569;BME280;14780;48.316;-1.050;2023-01-26T12:26:02;99909.00;;;22.12;32.75
18569;BME280;14780;48.316;-1.050;2023-01-26T12:32:07;99907.34;;;22.11;32.76
18569;BME280;14780;48.316;-1.050;2023-01-26T12:34:53;99909.00;;;22.12;32.78
18569;BME280;14780;48.316;-1.050;2023-01-26T12:38:01;99892.88;;;22.11;32.89
18569;BME280;14780;48.316;-1.050;2023-01-26T12:41:14;99902.72;;;22.12;32.63
18569;BME280;14780;48.316;-1.050;2023-01-26T12:50:28;99888.03;;;22.13;32.77
18569;BME280;14780;48.316;-1.050;2023-01-26T12:56:43;99889.69;;;22.14;32.83
18569;BME280;14780;48.316;-1.050;2023-01-26T12:59:36;99888.03;;;22.13;32.57
18569;BME280;14780;48.316;-1.050;2023-01-26T13:02:29;99892.66;;;22.12;32.79
18569;BME280;14780;48.316;-1.050;2023-01-26T13:05:27;99889.09;;;22.12;32.71
18569;BME280;14780;48.316;-1.050;2023-01-26T13:11:40;99887.19;;;22.12;32.74
18569;BME280;14780;48.316;-1.050;2023-01-26T13:20:24;99884.47;;;22.12;32.73
18569;BME280;14780;48.316;-1.050;2023-01-26T13:35:01;99880.44;;;22.15;32.68
18569;BME280;14780;48.316;-1.050;2023-01-26T13:40:41;99879.34;;;22.16;32.84
18569;BME280;14780;48.316;-1.050;2023-01-26T13:43:43;99881.28;;;22.15;32.55
18569;BME280;14780;48.316;-1.050;2023-01-26T13:46:42;99883.16;;;22.15;32.87
18569;BME280;14780;48.316;-1.050;2023-01-26T13:49:40;99883.75;;;22.17;32.64
18569;BME280;14780;48.316;-1.050;2023-01-26T13:52:26;99879.13;;;22.17;32.61
18569;BME280;14780;48.316;-1.050;2023-01-26T13:55:24;99881.00;;;22.17;32.61
18569;BME280;14780;48.316;-1.050;2023-01-26T13:58:16;99874.50;;;22.18;32.73
18569;BME280;14780;48.316;-1.050;2023-01-26T14:01:05;99873.69;;;22.17;32.72
18569;BME280;14780;48.316;-1.050;2023-01-26T14:04:02;99869.03;;;22.18;32.90
18569;BME280;14780;48.316;-1.050;2023-01-26T14:07:06;99880.78;;;22.18;32.64
18569;BME280;14780;48.316;-1.050;2023-01-26T14:09:55;99861.94;;;22.17;32.71
18569;BME280;14780;48.316;-1.050;2023-01-26T14:12:44;99867.38;;;22.17;32.57
18569;BME280;14780;48.316;-1.050;2023-01-26T14:15:32;99871.75;;;22.18;32.70
18569;BME280;14780;48.316;-1.050;2023-01-26T14:18:20;99869.03;;;22.18;32.74
18569;BME280;14780;48.316;-1.050;2023-01-26T14:21:18;99868.47;;;22.16;32.86
18569;BME280;14780;48.316;-1.050;2023-01-26T14:24:08;99867.38;;;22.17;32.76
18569;BME280;14780;48.316;-1.050;2023-01-26T14:26:53;99869.53;;;22.15;32.63
18569;BME280;14780;48.316;-1.050;2023-01-26T14:29:38;99873.34;;;22.14;32.82
18569;BME280;14780;48.316;-1.050;2023-01-26T14:32:23;99874.16;;;22.14;32.80
18569;BME280;14780;48.316;-1.050;2023-01-26T14:35:20;99868.63;;;22.09;32.77
18569;BME280;14780;48.316;-1.050;2023-01-26T14:38:12;99879.75;;;22.08;32.90
18569;BME280;14780;48.316;-1.050;2023-01-26T14:40:58;99873.44;;;22.07;32.87
18569;BME280;14780;48.316;-1.050;2023-01-26T14:43:44;99887.34;;;22.06;32.62
18569;BME280;14780;48.316;-1.050;2023-01-26T14:46:52;99889.22;;;22.05;32.52
18569;BME280;14780;48.316;-1.050;2023-01-26T14:50:43;99885.09;;;22.03;32.59
18569;BME280;14780;48.316;-1.050;2023-01-26T14:53:22;99887.81;;;22.03;32.48
18569;BME280;14780;48.316;-1.050;2023-01-26T14:56:17;99898.47;;;22.04;32.72
18569;BME280;14780;48.316;-1.050;2023-01-26T14:59:04;99903.94;;;22.04;32.57
18569;BME280;14780;48.316;-1.050;2023-01-26T15:01:50;99904.16;;;22.03;32.71
18569;BME280;14780;48.316;-1.050;2023-01-26T15:04:53;99910.69;;;22.02;32.60
18569;BME280;14780;48.316;-1.050;2023-01-26T15:07:44;99910.69;;;22.02;32.83
18569;BME280;14780;48.316;-1.050;2023-01-26T15:10:40;99907.16;;;22.01;32.58
18569;BME280;14780;48.316;-1.050;2023-01-26T15:13:29;99913.41;;;22.02;32.67
18569;BME280;14780;48.316;-1.050;2023-01-26T15:16:16;99919.44;;;22.04;32.91
18569;BME280;14780;48.316;-1.050;2023-01-26T15:19:04;99922.16;;;22.04;32.64
18569;BME280;14780;48.316;-1.050;2023-01-26T15:21:52;99923.00;;;22.04;32.92
18569;BME280;14780;48.316;-1.050;2023-01-26T15:24:37;99919.19;;;22.05;32.70
18569;BME280;14780;48.316;-1.050;2023-01-26T15:27:22;99929.28;;;22.05;32.88
18569;BME280;14780;48.316;-1.050;2023-01-26T15:30:16;99936.41;;;22.06;32.62
18569;BME280;14780;48.316;-1.050;2023-01-26T15:33:01;99939.13;;;22.06;32.65
18569;BME280;14780;48.316;-1.050;2023-01-26T15:35:57;99933.66;;;22.06;32.54
18569;BME280;14780;48.316;-1.050;2023-01-26T15:38:42;99945.38;;;22.06;32.87
18569;BME280;14780;48.316;-1.050;2023-01-26T15:41:27;99943.72;;;22.05;32.68
18569;BME280;14780;48.316;-1.050;2023-01-26T15:44:17;99944.56;;;22.06;32.53
18569;BME280;14780;48.316;-1.050;2023-01-26T15:47:03;99946.69;;;22.04;32.78
18569;BME280;14780;48.316;-1.050;2023-01-26T15:49:47;99948.38;;;22.05;32.67
18569;BME280;14780;48.316;-1.050;2023-01-26T15:52:32;99942.06;;;22.04;32.48
18569;BME280;14780;48.316;-1.050;2023-01-26T15:55:20;99938.50;;;22.04;32.87
18569;BME280;14780;48.316;-1.050;2023-01-26T15:58:06;99937.47;;;22.05;32.67
18569;BME280;14780;48.316;-1.050;2023-01-26T16:00:51;99945.66;;;22.05;32.81
18569;BME280;14780;48.316;-1.050;2023-01-26T16:03:37;99945.66;;;22.05;32.61
18569;BME280;14780;48.316;-1.050;2023-01-26T16:06:24;99957.34;;;22.05;32.45
18569;BME280;14780;48.316;-1.050;2023-01-26T16:09:09;99960.94;;;22.06;32.69
18569;BME280;14780;48.316;-1.050;2023-01-26T16:11:54;99956.53;;;22.05;32.72
18569;BME280;14780;48.316;-1.050;2023-01-26T16:14:39;99963.66;;;22.06;32.66
18569;BME280;14780;48.316;-1.050;2023-01-26T16:17:23;99962.81;;;22.05;32.70
18569;BME280;14780;48.316;-1.050;2023-01-26T16:20:09;99967.44;;;22.05;32.48
18569;BME280;14780;48.316;-1.050;2023-01-26T16:22:55;99965.75;;;22.04;32.56
18569;BME280;14780;48.316;-1.050;2023-01-26T16:25:39;99968.50;;;22.04;32.74